Latest Weather Observations for Spring Bay

IDT60801

Issued at 7:05 pm EDT Saturday 29 November 2014 (issued every 30 minutes, with the page automatically refreshed every 10 minutes)

About weather observations | Map of weather stations | Latest weather observations for TAS | Other Formats
Station Details ID: 092133 Name: SPRING BAY NTC AWS Lat: -42.55 Lon: 147.93 Height: 0.0 m
Data from the previous 72 hours. | See also: Recent months for locations in Tasmania
Date/Time
EDT
Temp
°C
App
Temp
°C
Dew
Point
Rel
Hum
%
Delta-T
°C
Wind Press
QNH
hPa
Press
MSL
hPa
Rain
since 9 am
mm
Dir
 
Spd
km/h
Gust
km/h
Spd
kts
Gust
kts
29/07:00pm 12.9 - - - - - - - - - 1019.2 1019.2 -
29/06:30pm 12.7 - - - - - - - - - 1019.1 1019.1 -
29/06:00pm 12.8 - - - - - - - - - 1019.0 1019.0 -
29/05:30pm 12.7 - - - - - - - - - 1018.9 1018.9 -
29/05:00pm 13.0 - - - - - - - - - 1018.8 1018.8 -
29/04:30pm 13.5 - - - - - - - - - 1018.8 1018.8 -
29/04:00pm 13.3 - - - - - - - - - 1018.9 1018.9 -
29/03:30pm 13.7 - - - - - - - - - 1018.9 1018.9 -
29/03:00pm 13.3 - - - - - - - - - 1018.8 1018.8 -
29/02:30pm 13.3 - - - - - - - - - 1018.9 1018.9 -
29/02:00pm 13.0 - - - - - - - - - 1019.3 1019.3 -
29/01:30pm 13.1 - - - - - - - - - 1019.6 1019.6 -
29/01:00pm 13.0 - - - - - - - - - 1019.7 1019.7 -
29/12:30pm 12.9 - - - - - - - - - 1019.7 1019.7 -
29/12:00pm 12.9 - - - - - - - - - 1019.7 1019.7 -
29/11:30am 13.2 - - - - - - - - - 1019.8 1019.8 -
29/11:00am 13.2 - - - - - - - - - 1020.0 1020.0 -
29/10:30am 12.9 - - - - - - - - - 1020.3 1020.3 -
29/10:00am 12.9 - - - - - - - - - 1020.2 1020.2 -
29/09:30am 12.8 - - - - - - - - - 1020.4 1020.4 -
29/09:00am 12.7 - - - - - - - - - 1020.3 1020.3 -
29/08:30am 12.8 - - - - - - - - - 1020.2 1020.2 -
29/08:00am 13.0 - - - - - - - - - 1020.2 1020.2 -
29/07:30am 12.9 - - - - - - - - - 1020.0 1020.0 -
29/07:00am 12.9 - - - - - - - - - 1019.8 1019.8 -
29/06:30am 13.2 - - - - - - - - - 1019.7 1019.7 -
29/06:00am 12.9 - - - - - - - - - 1019.6 1019.6 -
29/05:30am 12.8 - - - - - - - - - 1019.3 1019.3 -
29/05:00am 12.9 - - - - - - - - - 1019.0 1019.0 -
29/04:30am 12.9 - - - - - - - - - 1019.1 1019.1 -
29/04:00am 12.9 - - - - - - - - - 1019.4 1019.4 -
29/03:30am 13.2 - - - - - - - - - 1019.5 1019.5 -
29/03:00am 13.2 - - - - - - - - - 1019.7 1019.7 -
29/02:30am 13.0 - - - - - - - - - 1019.8 1019.8 -
29/02:00am 12.8 - - - - - - - - - 1020.0 1020.0 -
29/01:30am 12.3 - - - - - - - - - 1020.1 1020.1 -
29/01:00am 12.0 - - - - - - - - - 1020.4 1020.4 -
29/12:30am 12.0 - - - - - - - - - 1020.6 1020.6 -
29/12:00am 11.8 - - - - - - - - - 1020.8 1020.8 -
 
Date/Time
EDT
Temp
°C
App
Temp
°C
Dew
Point
Rel
Hum
%
Delta-T
°C
Wind Press
QNH
hPa
Press
MSL
hPa
Rain
since 9 am
mm
Dir
 
Spd
km/h
Gust
km/h
Spd
kts
Gust
kts
28/11:30pm 12.2 - - - - - - - - - 1021.1 1021.1 -
28/11:00pm 12.4 - - - - - - - - - 1021.3 1021.3 -
28/10:30pm 12.8 - - - - - - - - - 1021.5 1021.5 -
28/10:00pm 12.7 - - - - - - - - - 1021.6 1021.6 -
28/09:30pm 12.8 - - - - - - - - - 1021.6 1021.6 -
28/09:00pm 12.9 - - - - - - - - - 1021.6 1021.6 -
28/08:30pm 13.1 - - - - - - - - - 1021.5 1021.5 -
28/08:00pm 13.4 - - - - - - - - - 1021.3 1021.3 -
28/07:30pm 13.6 - - - - - - - - - 1021.2 1021.2 -
28/07:00pm 14.1 - - - - - - - - - 1021.1 1021.1 -
28/06:30pm 14.0 - - - - - - - - - 1021.0 1021.0 -
28/06:00pm 14.2 - - - - - - - - - 1020.9 1020.9 -
28/05:30pm 14.0 - - - - - - - - - 1020.9 1020.9 -
28/05:00pm 14.4 - - - - - - - - - 1020.9 1020.9 -
28/04:30pm 14.8 - - - - - - - - - 1020.9 1020.9 -
28/04:00pm 14.4 - - - - - - - - - 1021.1 1021.1 -
28/03:30pm 14.0 - - - - - - - - - 1021.1 1021.1 -
28/03:00pm 14.9 - - - - - - - - - 1021.4 1021.4 -
28/02:30pm 14.3 - - - - - - - - - 1021.4 1021.4 -
28/02:00pm 14.8 - - - - - - - - - 1021.6 1021.6 -
28/01:30pm 14.8 - - - - - - - - - 1021.9 1021.9 -
28/01:00pm 14.0 - - - - - - - - - 1022.0 1022.0 -
28/12:30pm 14.7 - - - - - - - - - 1021.9 1021.9 -
28/12:00pm 14.5 - - - - - - - - - 1022.1 1022.1 -
28/11:30am 14.2 - - - - - - - - - 1022.2 1022.2 -
28/11:00am 14.3 - - - - - - - - - 1022.3 1022.3 -
28/10:30am 14.2 - - - - - - - - - 1022.6 1022.6 -
28/10:00am 13.2 - - - - - - - - - 1022.8 1022.8 -
28/09:30am 13.4 - - - - - - - - - 1023.2 1023.2 -
28/09:00am 12.4 - - - - - - - - - 1023.3 1023.3 -
28/08:30am 11.7 - - - - - - - - - 1023.5 1023.5 -
28/08:00am 11.5 - - - - - - - - - 1023.6 1023.6 -
28/07:30am 11.9 - - - - - - - - - 1023.5 1023.5 -
28/07:00am 11.7 - - - - - - - - - 1023.3 1023.3 -
28/06:30am 11.4 - - - - - - - - - 1023.1 1023.1 -
28/06:00am 11.3 - - - - - - - - - 1023.1 1023.1 -
28/05:30am 11.4 - - - - - - - - - 1022.8 1022.8 -
28/05:00am 12.0 - - - - - - - - - 1023.0 1023.0 -
28/04:30am 12.2 - - - - - - - - - 1022.8 1022.8 -
28/04:00am 12.0 - - - - - - - - - 1022.7 1022.7 -
28/03:30am 11.9 - - - - - - - - - 1022.7 1022.7 -
28/03:00am 12.0 - - - - - - - - - 1022.6 1022.6 -
28/02:30am 12.1 - - - - - - - - - 1022.8 1022.8 -
28/02:00am 12.0 - - - - - - - - - 1023.1 1023.1 -
28/01:30am 12.1 - - - - - - - - - 1023.3 1023.3 -
28/01:00am 12.2 - - - - - - - - - 1023.5 1023.5 -
28/12:30am 12.1 - - - - - - - - - 1023.7 1023.7 -
28/12:00am 12.0 - - - - - - - - - 1024.0 1024.0 -
 
Date/Time
EDT
Temp
°C
App
Temp
°C
Dew
Point
Rel
Hum
%
Delta-T
°C
Wind Press
QNH
hPa
Press
MSL
hPa
Rain
since 9 am
mm
Dir
 
Spd
km/h
Gust
km/h
Spd
kts
Gust
kts
27/11:30pm 12.1 - - - - - - - - - 1024.1 1024.1 -
27/11:00pm 12.4 - - - - - - - - - 1024.2 1024.2 -
27/10:30pm 12.6 - - - - - - - - - 1024.4 1024.4 -
27/10:00pm 12.6 - - - - - - - - - 1024.1 1024.1 -
27/09:30pm 12.9 - - - - - - - - - 1024.0 1024.0 -
27/09:00pm 13.1 - - - - - - - - - 1024.0 1024.0 -
27/08:30pm 13.4 - - - - - - - - - 1023.5 1023.5 -
27/08:00pm 13.7 - - - - - - - - - 1023.4 1023.4 -
27/07:30pm 14.2 - - - - - - - - - 1023.0 1023.0 -
27/07:00pm 14.9 - - - - - - - - - 1022.8 1022.8 -
27/06:30pm 14.8 - - - - - - - - - 1022.3 1022.3 -
27/06:00pm 15.1 - - - - - - - - - 1022.1 1022.1 -
27/05:30pm 15.3 - - - - - - - - - 1021.7 1021.7 -
27/05:00pm 15.9 - - - - - - - - - 1021.7 1021.7 -
27/04:30pm 16.0 - - - - - - - - - 1021.7 1021.7 -
27/04:00pm 15.3 - - - - - - - - - 1021.7 1021.7 -
27/03:30pm 15.7 - - - - - - - - - 1021.7 1021.7 -
27/03:00pm 17.1 - - - - - - - - - 1021.7 1021.7 -
27/02:30pm 16.9 - - - - - - - - - 1021.8 1021.8 -
27/02:00pm 16.7 - - - - - - - - - 1021.8 1021.8 -
27/01:30pm 16.4 - - - - - - - - - 1021.9 1021.9 -
27/01:00pm 16.1 - - - - - - - - - 1021.9 1021.9 -
27/12:30pm 15.7 - - - - - - - - - 1022.2 1022.2 -
27/12:00pm 15.4 - - - - - - - - - 1022.4 1022.4 -
27/11:30am 15.1 - - - - - - - - - 1022.6 1022.6 -
27/11:00am 14.7 - - - - - - - - - 1022.7 1022.7 -
27/10:30am 14.3 - - - - - - - - - 1022.8 1022.8 -
27/10:00am 14.0 - - - - - - - - - 1022.9 1022.9 -
27/09:30am 13.4 - - - - - - - - - 1023.1 1023.1 -
27/09:00am 13.2 - - - - - - - - - 1022.9 1022.9 -
27/08:30am 13.1 - - - - - - - - - 1022.7 1022.7 -
27/08:00am 12.2 - - - - - - - - - 1022.8 1022.8 -
27/07:30am 11.8 - - - - - - - - - 1022.6 1022.6 -
27/07:00am 11.3 - - - - - - - - - 1022.3 1022.3 -
27/06:30am 11.1 - - - - - - - - - 1022.2 1022.2 -

Other Formats:

Comma delimited format used in spreadsheet applications
http://www.bom.gov.au/fwo/IDT60801/IDT60801.95987.axf

JavaScript Object Notation format (JSON) in row-major order
http://www.bom.gov.au/fwo/IDT60801/IDT60801.95987.json